sensor_id;sensor_type;location;lat;lon;timestamp;P1;durP1;ratioP1;P2;durP2;ratioP2
1378;SDS011;683;48.738;9.226;2023-03-31T00:02:05;6.37;;;2.10;;
1378;SDS011;683;48.738;9.226;2023-03-31T00:04:39;4.43;;;2.37;;
1378;SDS011;683;48.738;9.226;2023-03-31T00:07:13;3.50;;;2.30;;
1378;SDS011;683;48.738;9.226;2023-03-31T00:09:41;4.60;;;1.77;;
1378;SDS011;683;48.738;9.226;2023-03-31T00:12:10;4.47;;;2.10;;
1378;SDS011;683;48.738;9.226;2023-03-31T00:14:38;4.80;;;2.40;;
1378;SDS011;683;48.738;9.226;2023-03-31T00:17:06;6.20;;;1.93;;
1378;SDS011;683;48.738;9.226;2023-03-31T00:19:33;6.30;;;2.13;;
1378;SDS011;683;48.738;9.226;2023-03-31T00:22:02;6.17;;;2.67;;
1378;SDS011;683;48.738;9.226;2023-03-31T00:24:29;4.77;;;2.50;;
1378;SDS011;683;48.738;9.226;2023-03-31T00:27:01;8.90;;;2.30;;
1378;SDS011;683;48.738;9.226;2023-03-31T00:29:30;7.63;;;2.00;;
1378;SDS011;683;48.738;9.226;2023-03-31T00:32:03;3.90;;;2.00;;
1378;SDS011;683;48.738;9.226;2023-03-31T00:34:32;5.03;;;2.10;;
1378;SDS011;683;48.738;9.226;2023-03-31T00:37:05;7.17;;;3.20;;
1378;SDS011;683;48.738;9.226;2023-03-31T00:39:34;5.77;;;2.40;;
1378;SDS011;683;48.738;9.226;2023-03-31T00:42:02;3.33;;;2.20;;
1378;SDS011;683;48.738;9.226;2023-03-31T00:44:30;3.07;;;1.83;;
1378;SDS011;683;48.738;9.226;2023-03-31T00:47:00;8.13;;;2.23;;
1378;SDS011;683;48.738;9.226;2023-03-31T00:49:32;4.33;;;1.80;;
1378;SDS011;683;48.738;9.226;2023-03-31T00:52:05;3.63;;;2.97;;
1378;SDS011;683;48.738;9.226;2023-03-31T00:54:38;3.27;;;2.07;;
1378;SDS011;683;48.738;9.226;2023-03-31T00:57:07;3.53;;;2.03;;
1378;SDS011;683;48.738;9.226;2023-03-31T00:59:36;9.83;;;2.40;;
1378;SDS011;683;48.738;9.226;2023-03-31T01:02:08;6.07;;;2.50;;
1378;SDS011;683;48.738;9.226;2023-03-31T01:04:40;7.27;;;2.80;;
1378;SDS011;683;48.738;9.226;2023-03-31T01:07:17;6.50;;;2.33;;
1378;SDS011;683;48.738;9.226;2023-03-31T01:09:50;6.87;;;2.53;;
1378;SDS011;683;48.738;9.226;2023-03-31T01:12:21;7.07;;;3.30;;
1378;SDS011;683;48.738;9.226;2023-03-31T01:14:49;6.63;;;2.10;;
1378;SDS011;683;48.738;9.226;2023-03-31T01:17:17;6.50;;;2.60;;
1378;SDS011;683;48.738;9.226;2023-03-31T01:19:52;2.73;;;2.50;;
1378;SDS011;683;48.738;9.226;2023-03-31T01:22:50;6.10;;;2.07;;
1378;SDS011;683;48.738;9.226;2023-03-31T01:26:01;4.93;;;2.43;;
1378;SDS011;683;48.738;9.226;2023-03-31T01:28:50;5.20;;;2.33;;
1378;SDS011;683;48.738;9.226;2023-03-31T01:40:57;4.03;;;2.50;;
1378;SDS011;683;48.738;9.226;2023-03-31T01:43:35;5.80;;;2.30;;
1378;SDS011;683;48.738;9.226;2023-03-31T01:46:09;5.20;;;2.37;;
1378;SDS011;683;48.738;9.226;2023-03-31T01:48:46;5.40;;;2.27;;
1378;SDS011;683;48.738;9.226;2023-03-31T01:51:21;4.77;;;2.23;;
1378;SDS011;683;48.738;9.226;2023-03-31T01:54:02;10.57;;;4.70;;
1378;SDS011;683;48.738;9.226;2023-03-31T01:56:44;7.17;;;2.83;;
1378;SDS011;683;48.738;9.226;2023-03-31T01:59:15;3.30;;;2.40;;
1378;SDS011;683;48.738;9.226;2023-03-31T02:01:51;3.40;;;2.13;;
1378;SDS011;683;48.738;9.226;2023-03-31T02:04:23;6.63;;;3.00;;
1378;SDS011;683;48.738;9.226;2023-03-31T02:06:58;3.77;;;2.40;;
1378;SDS011;683;48.738;9.226;2023-03-31T02:09:30;7.90;;;2.20;;
1378;SDS011;683;48.738;9.226;2023-03-31T02:12:02;3.87;;;2.70;;
1378;SDS011;683;48.738;9.226;2023-03-31T02:14:34;10.13;;;2.70;;
1378;SDS011;683;48.738;9.226;2023-03-31T02:17:06;5.37;;;2.50;;
1378;SDS011;683;48.738;9.226;2023-03-31T02:19:38;3.93;;;2.10;;
1378;SDS011;683;48.738;9.226;2023-03-31T02:22:09;8.77;;;2.83;;
1378;SDS011;683;48.738;9.226;2023-03-31T02:24:38;4.03;;;2.50;;
1378;SDS011;683;48.738;9.226;2023-03-31T02:27:10;9.03;;;2.53;;
1378;SDS011;683;48.738;9.226;2023-03-31T02:29:41;3.60;;;2.80;;
1378;SDS011;683;48.738;9.226;2023-03-31T02:32:09;7.67;;;2.40;;
1378;SDS011;683;48.738;9.226;2023-03-31T02:34:40;7.37;;;3.10;;
1378;SDS011;683;48.738;9.226;2023-03-31T02:37:08;5.23;;;2.83;;
1378;SDS011;683;48.738;9.226;2023-03-31T02:39:35;5.93;;;2.80;;
1378;SDS011;683;48.738;9.226;2023-03-31T02:42:06;6.10;;;2.80;;
1378;SDS011;683;48.738;9.226;2023-03-31T02:44:36;5.10;;;3.40;;
1378;SDS011;683;48.738;9.226;2023-03-31T02:47:05;4.00;;;2.57;;
1378;SDS011;683;48.738;9.226;2023-03-31T02:49:34;10.70;;;4.20;;
1378;SDS011;683;48.738;9.226;2023-03-31T02:52:11;13.10;;;3.90;;
1378;SDS011;683;48.738;9.226;2023-03-31T02:55:07;8.43;;;2.60;;
1378;SDS011;683;48.738;9.226;2023-03-31T02:57:46;5.83;;;2.50;;
1378;SDS011;683;48.738;9.226;2023-03-31T03:00:46;3.90;;;2.30;;
1378;SDS011;683;48.738;9.226;2023-03-31T03:03:29;3.57;;;2.80;;
1378;SDS011;683;48.738;9.226;2023-03-31T03:06:04;5.87;;;2.97;;
1378;SDS011;683;48.738;9.226;2023-03-31T03:09:04;4.20;;;2.33;;
1378;SDS011;683;48.738;9.226;2023-03-31T03:11:41;5.03;;;3.00;;
1378;SDS011;683;48.738;9.226;2023-03-31T03:14:15;4.67;;;2.57;;
1378;SDS011;683;48.738;9.226;2023-03-31T03:16:49;4.80;;;2.30;;
1378;SDS011;683;48.738;9.226;2023-03-31T03:19:25;7.43;;;2.77;;
1378;SDS011;683;48.738;9.226;2023-03-31T03:21:53;2.60;;;2.10;;
1378;SDS011;683;48.738;9.226;2023-03-31T03:24:20;4.60;;;2.77;;
1378;SDS011;683;48.738;9.226;2023-03-31T03:26:48;3.87;;;2.33;;
1378;SDS011;683;48.738;9.226;2023-03-31T03:29:16;3.80;;;2.70;;
1378;SDS011;683;48.738;9.226;2023-03-31T03:31:43;4.77;;;2.50;;
1378;SDS011;683;48.738;9.226;2023-03-31T03:34:15;3.73;;;2.50;;
1378;SDS011;683;48.738;9.226;2023-03-31T03:36:45;3.77;;;2.33;;
1378;SDS011;683;48.738;9.226;2023-03-31T03:39:12;5.10;;;3.30;;
1378;SDS011;683;48.738;9.226;2023-03-31T03:41:39;4.60;;;2.93;;
1378;SDS011;683;48.738;9.226;2023-03-31T03:44:06;6.33;;;2.43;;
1378;SDS011;683;48.738;9.226;2023-03-31T03:46:37;3.53;;;3.13;;
1378;SDS011;683;48.738;9.226;2023-03-31T03:49:04;2.60;;;2.40;;
1378;SDS011;683;48.738;9.226;2023-03-31T03:51:32;7.93;;;3.20;;
1378;SDS011;683;48.738;9.226;2023-03-31T03:54:00;8.53;;;3.50;;
1378;SDS011;683;48.738;9.226;2023-03-31T03:56:28;4.87;;;3.23;;
1378;SDS011;683;48.738;9.226;2023-03-31T03:58:56;4.30;;;3.43;;
1378;SDS011;683;48.738;9.226;2023-03-31T04:01:26;7.90;;;3.63;;
1378;SDS011;683;48.738;9.226;2023-03-31T04:03:53;5.70;;;3.40;;
1378;SDS011;683;48.738;9.226;2023-03-31T04:06:20;13.70;;;3.90;;
1378;SDS011;683;48.738;9.226;2023-03-31T04:08:49;4.73;;;3.67;;
1378;SDS011;683;48.738;9.226;2023-03-31T04:11:17;5.90;;;3.50;;
1378;SDS011;683;48.738;9.226;2023-03-31T04:13:44;5.00;;;3.90;;
1378;SDS011;683;48.738;9.226;2023-03-31T04:16:12;4.43;;;3.40;;
1378;SDS011;683;48.738;9.226;2023-03-31T04:18:41;7.83;;;4.07;;
1378;SDS011;683;48.738;9.226;2023-03-31T04:21:13;8.53;;;3.93;;
1378;SDS011;683;48.738;9.226;2023-03-31T04:23:48;5.70;;;4.30;;
1378;SDS011;683;48.738;9.226;2023-03-31T04:26:23;5.90;;;4.57;;
1378;SDS011;683;48.738;9.226;2023-03-31T04:28:55;7.93;;;4.20;;
1378;SDS011;683;48.738;9.226;2023-03-31T04:31:24;7.37;;;4.10;;
1378;SDS011;683;48.738;9.226;2023-03-31T04:33:55;5.97;;;3.77;;
1378;SDS011;683;48.738;9.226;2023-03-31T04:36:26;7.10;;;3.70;;
1378;SDS011;683;48.738;9.226;2023-03-31T04:38:57;6.27;;;4.30;;
1378;SDS011;683;48.738;9.226;2023-03-31T04:41:25;4.33;;;3.73;;
1378;SDS011;683;48.738;9.226;2023-03-31T04:43:55;7.73;;;4.33;;
1378;SDS011;683;48.738;9.226;2023-03-31T04:46:22;6.63;;;4.13;;
1378;SDS011;683;48.738;9.226;2023-03-31T04:48:49;5.50;;;4.67;;
1378;SDS011;683;48.738;9.226;2023-03-31T04:51:17;7.93;;;4.17;;
1378;SDS011;683;48.738;9.226;2023-03-31T04:53:44;5.93;;;4.47;;
1378;SDS011;683;48.738;9.226;2023-03-31T04:56:13;5.97;;;4.73;;
1378;SDS011;683;48.738;9.226;2023-03-31T04:58:40;5.73;;;3.83;;
1378;SDS011;683;48.738;9.226;2023-03-31T05:01:11;6.87;;;5.07;;
1378;SDS011;683;48.738;9.226;2023-03-31T05:03:42;7.10;;;4.40;;
1378;SDS011;683;48.738;9.226;2023-03-31T05:06:10;9.27;;;5.10;;
1378;SDS011;683;48.738;9.226;2023-03-31T05:08:40;5.97;;;4.27;;
1378;SDS011;683;48.738;9.226;2023-03-31T05:11:09;5.07;;;4.30;;
1378;SDS011;683;48.738;9.226;2023-03-31T05:13:38;7.00;;;5.00;;
1378;SDS011;683;48.738;9.226;2023-03-31T05:16:05;9.80;;;5.40;;
1378;SDS011;683;48.738;9.226;2023-03-31T05:18:34;11.30;;;5.80;;
1378;SDS011;683;48.738;9.226;2023-03-31T05:21:08;9.40;;;6.30;;
1378;SDS011;683;48.738;9.226;2023-03-31T05:23:37;5.90;;;4.60;;
1378;SDS011;683;48.738;9.226;2023-03-31T05:26:04;8.83;;;5.30;;
1378;SDS011;683;48.738;9.226;2023-03-31T05:28:32;8.33;;;6.10;;
1378;SDS011;683;48.738;9.226;2023-03-31T05:31:02;7.50;;;5.57;;
1378;SDS011;683;48.738;9.226;2023-03-31T05:33:33;5.83;;;4.63;;
1378;SDS011;683;48.738;9.226;2023-03-31T05:36:05;10.27;;;5.27;;
1378;SDS011;683;48.738;9.226;2023-03-31T05:38:33;5.80;;;5.00;;
1378;SDS011;683;48.738;9.226;2023-03-31T05:41:00;10.07;;;5.97;;
1378;SDS011;683;48.738;9.226;2023-03-31T05:43:27;13.60;;;6.10;;
1378;SDS011;683;48.738;9.226;2023-03-31T05:45:55;8.50;;;6.17;;
1378;SDS011;683;48.738;9.226;2023-03-31T05:48:23;8.70;;;6.50;;
1378;SDS011;683;48.738;9.226;2023-03-31T05:50:55;8.67;;;6.27;;
1378;SDS011;683;48.738;9.226;2023-03-31T05:53:23;10.53;;;6.00;;
1378;SDS011;683;48.738;9.226;2023-03-31T05:55:55;9.60;;;5.63;;
1378;SDS011;683;48.738;9.226;2023-03-31T05:58:23;6.43;;;5.83;;
1378;SDS011;683;48.738;9.226;2023-03-31T06:00:58;10.43;;;6.20;;
1378;SDS011;683;48.738;9.226;2023-03-31T06:03:28;8.07;;;5.57;;
1378;SDS011;683;48.738;9.226;2023-03-31T06:05:55;9.80;;;6.50;;
1378;SDS011;683;48.738;9.226;2023-03-31T06:08:23;8.27;;;5.70;;
1378;SDS011;683;48.738;9.226;2023-03-31T06:10:52;8.27;;;5.97;;
1378;SDS011;683;48.738;9.226;2023-03-31T06:13:22;7.97;;;6.10;;
1378;SDS011;683;48.738;9.226;2023-03-31T06:15:53;9.57;;;6.17;;
1378;SDS011;683;48.738;9.226;2023-03-31T06:18:21;7.37;;;6.23;;
1378;SDS011;683;48.738;9.226;2023-03-31T06:20:54;10.97;;;7.47;;
1378;SDS011;683;48.738;9.226;2023-03-31T06:23:22;7.20;;;5.90;;
1378;SDS011;683;48.738;9.226;2023-03-31T06:25:50;9.37;;;6.90;;
1378;SDS011;683;48.738;9.226;2023-03-31T06:28:18;11.17;;;7.20;;
1378;SDS011;683;48.738;9.226;2023-03-31T06:30:46;10.10;;;6.70;;
1378;SDS011;683;48.738;9.226;2023-03-31T06:33:14;9.00;;;6.73;;
1378;SDS011;683;48.738;9.226;2023-03-31T06:35:41;11.83;;;7.53;;
1378;SDS011;683;48.738;9.226;2023-03-31T06:38:10;9.43;;;6.73;;
1378;SDS011;683;48.738;9.226;2023-03-31T06:40:37;12.00;;;7.50;;
1378;SDS011;683;48.738;9.226;2023-03-31T06:43:04;14.40;;;7.03;;
1378;SDS011;683;48.738;9.226;2023-03-31T06:45:31;9.77;;;7.33;;
1378;SDS011;683;48.738;9.226;2023-03-31T06:48:02;18.23;;;8.13;;
1378;SDS011;683;48.738;9.226;2023-03-31T06:50:29;12.07;;;8.07;;
1378;SDS011;683;48.738;9.226;2023-03-31T06:52:56;18.17;;;8.60;;
1378;SDS011;683;48.738;9.226;2023-03-31T06:55:25;9.20;;;7.43;;
1378;SDS011;683;48.738;9.226;2023-03-31T06:57:53;15.83;;;8.93;;
1378;SDS011;683;48.738;9.226;2023-03-31T07:00:20;8.77;;;7.57;;
1378;SDS011;683;48.738;9.226;2023-03-31T07:02:50;21.90;;;9.77;;
1378;SDS011;683;48.738;9.226;2023-03-31T07:05:17;15.23;;;10.40;;
1378;SDS011;683;48.738;9.226;2023-03-31T07:07:51;11.83;;;8.70;;
1378;SDS011;683;48.738;9.226;2023-03-31T07:10:18;11.63;;;8.13;;
1378;SDS011;683;48.738;9.226;2023-03-31T07:12:49;14.40;;;8.43;;
1378;SDS011;683;48.738;9.226;2023-03-31T07:15:16;15.57;;;9.20;;
1378;SDS011;683;48.738;9.226;2023-03-31T07:17:43;16.07;;;8.60;;
1378;SDS011;683;48.738;9.226;2023-03-31T07:20:15;9.10;;;7.27;;
1378;SDS011;683;48.738;9.226;2023-03-31T07:22:44;7.67;;;6.90;;
1378;SDS011;683;48.738;9.226;2023-03-31T07:25:15;9.43;;;6.77;;
1378;SDS011;683;48.738;9.226;2023-03-31T07:27:43;6.57;;;5.60;;
1378;SDS011;683;48.738;9.226;2023-03-31T07:30:13;9.43;;;5.73;;
1378;SDS011;683;48.738;9.226;2023-03-31T07:32:41;6.53;;;4.60;;
1378;SDS011;683;48.738;9.226;2023-03-31T07:35:09;4.87;;;4.30;;
1378;SDS011;683;48.738;9.226;2023-03-31T07:37:37;6.00;;;4.20;;
1378;SDS011;683;48.738;9.226;2023-03-31T07:40:07;4.93;;;4.23;;
1378;SDS011;683;48.738;9.226;2023-03-31T07:42:35;5.00;;;4.30;;
1378;SDS011;683;48.738;9.226;2023-03-31T07:45:03;6.33;;;3.60;;
1378;SDS011;683;48.738;9.226;2023-03-31T07:47:34;5.37;;;3.23;;
1378;SDS011;683;48.738;9.226;2023-03-31T07:50:03;3.80;;;2.40;;
1378;SDS011;683;48.738;9.226;2023-03-31T07:52:32;2.73;;;2.50;;
1378;SDS011;683;48.738;9.226;2023-03-31T07:54:59;2.67;;;2.20;;
1378;SDS011;683;48.738;9.226;2023-03-31T07:57:28;2.77;;;1.63;;
1378;SDS011;683;48.738;9.226;2023-03-31T07:59:55;3.43;;;1.80;;
1378;SDS011;683;48.738;9.226;2023-03-31T08:02:22;2.60;;;1.50;;
1378;SDS011;683;48.738;9.226;2023-03-31T08:04:51;2.60;;;1.83;;
1378;SDS011;683;48.738;9.226;2023-03-31T08:07:18;5.20;;;1.70;;
1378;SDS011;683;48.738;9.226;2023-03-31T08:09:46;3.03;;;1.50;;
1378;SDS011;683;48.738;9.226;2023-03-31T08:12:15;2.60;;;1.40;;
1378;SDS011;683;48.738;9.226;2023-03-31T08:14:42;1.40;;;1.30;;
1378;SDS011;683;48.738;9.226;2023-03-31T08:17:10;1.83;;;1.20;;
1378;SDS011;683;48.738;9.226;2023-03-31T08:19:37;1.60;;;1.50;;
1378;SDS011;683;48.738;9.226;2023-03-31T08:22:05;1.67;;;1.17;;
1378;SDS011;683;48.738;9.226;2023-03-31T08:24:33;3.07;;;1.10;;
1378;SDS011;683;48.738;9.226;2023-03-31T08:27:00;4.37;;;1.23;;
1378;SDS011;683;48.738;9.226;2023-03-31T08:29:29;2.10;;;1.10;;
1378;SDS011;683;48.738;9.226;2023-03-31T08:31:56;1.50;;;1.40;;
1378;SDS011;683;48.738;9.226;2023-03-31T08:34:24;2.53;;;1.10;;
1378;SDS011;683;48.738;9.226;2023-03-31T08:36:51;2.83;;;1.33;;
1378;SDS011;683;48.738;9.226;2023-03-31T08:39:20;1.20;;;1.00;;
1378;SDS011;683;48.738;9.226;2023-03-31T08:41:50;3.30;;;1.30;;
1378;SDS011;683;48.738;9.226;2023-03-31T08:44:25;1.20;;;1.10;;
1378;SDS011;683;48.738;9.226;2023-03-31T08:46:57;2.23;;;1.60;;
1378;SDS011;683;48.738;9.226;2023-03-31T08:49:30;2.20;;;1.20;;
1378;SDS011;683;48.738;9.226;2023-03-31T08:52:04;2.30;;;1.40;;
1378;SDS011;683;48.738;9.226;2023-03-31T08:54:39;3.13;;;2.90;;
1378;SDS011;683;48.738;9.226;2023-03-31T08:57:11;2.43;;;1.50;;
1378;SDS011;683;48.738;9.226;2023-03-31T08:59:44;2.53;;;1.10;;
1378;SDS011;683;48.738;9.226;2023-03-31T09:02:15;4.70;;;1.30;;
1378;SDS011;683;48.738;9.226;2023-03-31T09:07:58;2.90;;;1.50;;
1378;SDS011;683;48.738;9.226;2023-03-31T09:10:38;2.63;;;2.20;;
1378;SDS011;683;48.738;9.226;2023-03-31T09:13:18;5.97;;;1.80;;
1378;SDS011;683;48.738;9.226;2023-03-31T09:16:05;3.37;;;1.30;;
1378;SDS011;683;48.738;9.226;2023-03-31T09:18:39;3.57;;;1.60;;
1378;SDS011;683;48.738;9.226;2023-03-31T09:21:14;1.30;;;1.00;;
1378;SDS011;683;48.738;9.226;2023-03-31T09:23:47;2.47;;;1.33;;
1378;SDS011;683;48.738;9.226;2023-03-31T09:26:24;2.60;;;1.40;;
1378;SDS011;683;48.738;9.226;2023-03-31T09:28:57;3.73;;;1.77;;
1378;SDS011;683;48.738;9.226;2023-03-31T09:31:26;1.70;;;1.10;;
1378;SDS011;683;48.738;9.226;2023-03-31T09:33:56;1.33;;;1.23;;
1378;SDS011;683;48.738;9.226;2023-03-31T09:36:29;2.27;;;1.17;;
1378;SDS011;683;48.738;9.226;2023-03-31T09:38:57;1.70;;;1.33;;
1378;SDS011;683;48.738;9.226;2023-03-31T09:41:26;3.83;;;2.27;;
1378;SDS011;683;48.738;9.226;2023-03-31T09:43:53;3.97;;;1.43;;
1378;SDS011;683;48.738;9.226;2023-03-31T09:46:23;1.97;;;1.10;;
1378;SDS011;683;48.738;9.226;2023-03-31T09:48:57;5.57;;;1.10;;
1378;SDS011;683;48.738;9.226;2023-03-31T09:51:29;2.27;;;1.40;;
1378;SDS011;683;48.738;9.226;2023-03-31T09:54:02;4.07;;;1.90;;
1378;SDS011;683;48.738;9.226;2023-03-31T09:56:44;2.37;;;1.33;;
1378;SDS011;683;48.738;9.226;2023-03-31T09:59:15;2.93;;;1.27;;
1378;SDS011;683;48.738;9.226;2023-03-31T10:01:48;1.73;;;1.00;;
1378;SDS011;683;48.738;9.226;2023-03-31T10:04:18;6.47;;;1.50;;
1378;SDS011;683;48.738;9.226;2023-03-31T10:06:48;2.07;;;1.07;;
1378;SDS011;683;48.738;9.226;2023-03-31T10:09:17;2.83;;;1.17;;
1378;SDS011;683;48.738;9.226;2023-03-31T10:11:54;2.70;;;2.50;;
1378;SDS011;683;48.738;9.226;2023-03-31T10:14:23;2.23;;;1.10;;
1378;SDS011;683;48.738;9.226;2023-03-31T10:16:53;5.43;;;1.80;;
1378;SDS011;683;48.738;9.226;2023-03-31T10:19:21;2.70;;;1.47;;
1378;SDS011;683;48.738;9.226;2023-03-31T10:21:54;5.00;;;1.90;;
1378;SDS011;683;48.738;9.226;2023-03-31T10:24:23;7.20;;;1.80;;
1378;SDS011;683;48.738;9.226;2023-03-31T10:26:52;6.70;;;3.07;;
1378;SDS011;683;48.738;9.226;2023-03-31T10:29:23;3.73;;;1.50;;
1378;SDS011;683;48.738;9.226;2023-03-31T10:31:54;2.70;;;1.70;;
1378;SDS011;683;48.738;9.226;2023-03-31T10:34:27;3.83;;;1.50;;
1378;SDS011;683;48.738;9.226;2023-03-31T10:36:56;3.10;;;1.47;;
1378;SDS011;683;48.738;9.226;2023-03-31T10:39:27;3.07;;;1.47;;
1378;SDS011;683;48.738;9.226;2023-03-31T10:41:59;8.00;;;2.13;;
1378;SDS011;683;48.738;9.226;2023-03-31T10:44:30;3.70;;;1.40;;
1378;SDS011;683;48.738;9.226;2023-03-31T10:47:05;7.73;;;2.10;;
1378;SDS011;683;48.738;9.226;2023-03-31T10:49:42;4.40;;;2.27;;
1378;SDS011;683;48.738;9.226;2023-03-31T10:52:14;4.70;;;1.97;;
1378;SDS011;683;48.738;9.226;2023-03-31T10:54:47;6.57;;;1.60;;
1378;SDS011;683;48.738;9.226;2023-03-31T10:57:20;3.57;;;1.40;;
1378;SDS011;683;48.738;9.226;2023-03-31T11:00:08;2.53;;;1.30;;
1378;SDS011;683;48.738;9.226;2023-03-31T11:02:46;5.80;;;1.43;;
1378;SDS011;683;48.738;9.226;2023-03-31T11:05:37;2.10;;;1.20;;
1378;SDS011;683;48.738;9.226;2023-03-31T11:08:18;7.40;;;2.00;;
1378;SDS011;683;48.738;9.226;2023-03-31T11:11:02;6.70;;;2.40;;
1378;SDS011;683;48.738;9.226;2023-03-31T11:13:40;7.03;;;1.70;;
1378;SDS011;683;48.738;9.226;2023-03-31T11:16:16;6.83;;;1.57;;
1378;SDS011;683;48.738;9.226;2023-03-31T11:18:53;7.77;;;2.00;;
1378;SDS011;683;48.738;9.226;2023-03-31T11:21:35;5.43;;;1.50;;
1378;SDS011;683;48.738;9.226;2023-03-31T11:24:14;4.47;;;1.37;;
1378;SDS011;683;48.738;9.226;2023-03-31T11:26:49;2.20;;;0.80;;
1378;SDS011;683;48.738;9.226;2023-03-31T11:29:31;3.70;;;1.43;;
1378;SDS011;683;48.738;9.226;2023-03-31T11:32:15;2.87;;;0.87;;
1378;SDS011;683;48.738;9.226;2023-03-31T11:34:58;2.93;;;1.17;;
1378;SDS011;683;48.738;9.226;2023-03-31T11:37:46;3.07;;;1.03;;
1378;SDS011;683;48.738;9.226;2023-03-31T11:40:28;1.47;;;0.60;;
1378;SDS011;683;48.738;9.226;2023-03-31T11:43:02;0.70;;;0.40;;
1378;SDS011;683;48.738;9.226;2023-03-31T11:45:34;1.70;;;0.60;;
1378;SDS011;683;48.738;9.226;2023-03-31T11:48:05;3.13;;;1.03;;
1378;SDS011;683;48.738;9.226;2023-03-31T11:50:51;1.53;;;0.80;;
1378;SDS011;683;48.738;9.226;2023-03-31T11:53:23;0.83;;;0.57;;
1378;SDS011;683;48.738;9.226;2023-03-31T11:55:53;1.70;;;0.80;;
1378;SDS011;683;48.738;9.226;2023-03-31T11:58:23;0.97;;;0.80;;
1378;SDS011;683;48.738;9.226;2023-03-31T12:01:00;3.80;;;0.90;;
1378;SDS011;683;48.738;9.226;2023-03-31T12:03:36;3.63;;;0.90;;
1378;SDS011;683;48.738;9.226;2023-03-31T12:06:13;1.40;;;1.30;;
1378;SDS011;683;48.738;9.226;2023-03-31T12:08:48;0.77;;;0.50;;
1378;SDS011;683;48.738;9.226;2023-03-31T12:11:25;0.97;;;0.60;;
1378;SDS011;683;48.738;9.226;2023-03-31T12:13:59;2.20;;;0.60;;
1378;SDS011;683;48.738;9.226;2023-03-31T12:16:36;0.60;;;0.60;;
1378;SDS011;683;48.738;9.226;2023-03-31T12:19:07;0.60;;;0.60;;
1378;SDS011;683;48.738;9.226;2023-03-31T12:21:40;1.90;;;0.70;;
1378;SDS011;683;48.738;9.226;2023-03-31T12:24:13;1.70;;;0.73;;
1378;SDS011;683;48.738;9.226;2023-03-31T12:26:42;1.10;;;0.60;;
1378;SDS011;683;48.738;9.226;2023-03-31T12:29:21;0.90;;;0.47;;
1378;SDS011;683;48.738;9.226;2023-03-31T12:31:56;5.70;;;1.30;;
1378;SDS011;683;48.738;9.226;2023-03-31T12:34:27;1.03;;;0.60;;
1378;SDS011;683;48.738;9.226;2023-03-31T12:37:05;1.63;;;0.70;;
1378;SDS011;683;48.738;9.226;2023-03-31T12:39:43;3.43;;;0.70;;
1378;SDS011;683;48.738;9.226;2023-03-31T12:42:27;2.57;;;0.60;;
1378;SDS011;683;48.738;9.226;2023-03-31T12:45:11;0.70;;;0.60;;
1378;SDS011;683;48.738;9.226;2023-03-31T12:48:01;1.43;;;0.50;;
1378;SDS011;683;48.738;9.226;2023-03-31T12:50:56;2.70;;;0.67;;
1378;SDS011;683;48.738;9.226;2023-03-31T12:53:37;4.13;;;1.10;;
1378;SDS011;683;48.738;9.226;2023-03-31T12:56:13;3.10;;;1.07;;
1378;SDS011;683;48.738;9.226;2023-03-31T12:58:45;2.50;;;1.10;;
1378;SDS011;683;48.738;9.226;2023-03-31T13:01:13;1.50;;;1.03;;
1378;SDS011;683;48.738;9.226;2023-03-31T13:03:51;3.60;;;1.20;;
1378;SDS011;683;48.738;9.226;2023-03-31T13:09:43;4.50;;;1.67;;
1378;SDS011;683;48.738;9.226;2023-03-31T13:12:13;4.47;;;1.40;;
1378;SDS011;683;48.738;9.226;2023-03-31T13:14:44;2.17;;;1.13;;
1378;SDS011;683;48.738;9.226;2023-03-31T13:20:25;2.50;;;1.13;;
1378;SDS011;683;48.738;9.226;2023-03-31T13:22:58;2.90;;;1.07;;
1378;SDS011;683;48.738;9.226;2023-03-31T13:25:38;4.80;;;1.40;;
1378;SDS011;683;48.738;9.226;2023-03-31T13:28:10;7.70;;;1.50;;
1378;SDS011;683;48.738;9.226;2023-03-31T13:30:52;14.37;;;2.80;;
1378;SDS011;683;48.738;9.226;2023-03-31T13:33:35;8.33;;;2.03;;
1378;SDS011;683;48.738;9.226;2023-03-31T13:36:18;4.50;;;2.00;;
1378;SDS011;683;48.738;9.226;2023-03-31T13:39:04;4.97;;;1.90;;
1378;SDS011;683;48.738;9.226;2023-03-31T13:41:48;5.60;;;1.40;;
1378;SDS011;683;48.738;9.226;2023-03-31T13:44:27;5.37;;;1.00;;
1378;SDS011;683;48.738;9.226;2023-03-31T13:47:33;2.63;;;0.93;;
1378;SDS011;683;48.738;9.226;2023-03-31T13:50:18;1.50;;;0.90;;
1378;SDS011;683;48.738;9.226;2023-03-31T13:53:01;0.50;;;0.50;;
1378;SDS011;683;48.738;9.226;2023-03-31T13:55:48;0.70;;;0.60;;
1378;SDS011;683;48.738;9.226;2023-03-31T14:01:49;0.93;;;0.60;;
1378;SDS011;683;48.738;9.226;2023-03-31T14:04:53;1.90;;;0.87;;
1378;SDS011;683;48.738;9.226;2023-03-31T14:07:30;2.00;;;0.60;;
1378;SDS011;683;48.738;9.226;2023-03-31T14:10:02;1.77;;;0.60;;
1378;SDS011;683;48.738;9.226;2023-03-31T14:12:32;0.50;;;0.40;;
1378;SDS011;683;48.738;9.226;2023-03-31T14:15:00;2.03;;;0.70;;
1378;SDS011;683;48.738;9.226;2023-03-31T14:17:28;1.27;;;0.80;;
1378;SDS011;683;48.738;9.226;2023-03-31T14:19:59;1.50;;;0.50;;
1378;SDS011;683;48.738;9.226;2023-03-31T14:22:45;0.73;;;0.53;;
1378;SDS011;683;48.738;9.226;2023-03-31T14:25:25;1.57;;;1.10;;
1378;SDS011;683;48.738;9.226;2023-03-31T14:28:03;0.63;;;0.60;;
1378;SDS011;683;48.738;9.226;2023-03-31T14:30:46;1.07;;;0.60;;
1378;SDS011;683;48.738;9.226;2023-03-31T14:33:26;1.87;;;0.80;;
1378;SDS011;683;48.738;9.226;2023-03-31T14:36:00;1.20;;;0.63;;
1378;SDS011;683;48.738;9.226;2023-03-31T14:38:34;1.60;;;0.63;;
1378;SDS011;683;48.738;9.226;2023-03-31T14:41:02;0.80;;;0.60;;
1378;SDS011;683;48.738;9.226;2023-03-31T14:43:31;0.70;;;0.50;;
1378;SDS011;683;48.738;9.226;2023-03-31T14:46:01;0.40;;;0.40;;
1378;SDS011;683;48.738;9.226;2023-03-31T14:48:30;1.40;;;0.90;;
1378;SDS011;683;48.738;9.226;2023-03-31T14:51:00;1.47;;;0.60;;
1378;SDS011;683;48.738;9.226;2023-03-31T14:53:28;0.93;;;0.70;;
1378;SDS011;683;48.738;9.226;2023-03-31T14:55:57;1.00;;;0.70;;
1378;SDS011;683;48.738;9.226;2023-03-31T14:58:30;1.50;;;0.50;;
1378;SDS011;683;48.738;9.226;2023-03-31T15:01:01;0.80;;;0.60;;
1378;SDS011;683;48.738;9.226;2023-03-31T15:03:31;1.80;;;1.00;;
1378;SDS011;683;48.738;9.226;2023-03-31T15:06:02;1.47;;;0.83;;
1378;SDS011;683;48.738;9.226;2023-03-31T15:08:30;1.40;;;1.00;;
1378;SDS011;683;48.738;9.226;2023-03-31T15:11:02;1.23;;;0.80;;
1378;SDS011;683;48.738;9.226;2023-03-31T15:13:34;2.43;;;1.07;;
1378;SDS011;683;48.738;9.226;2023-03-31T15:16:18;1.47;;;0.80;;
1378;SDS011;683;48.738;9.226;2023-03-31T15:18:46;2.50;;;0.80;;
1378;SDS011;683;48.738;9.226;2023-03-31T15:21:18;2.00;;;0.60;;
1378;SDS011;683;48.738;9.226;2023-03-31T15:23:46;1.67;;;0.90;;
1378;SDS011;683;48.738;9.226;2023-03-31T15:26:17;1.40;;;0.70;;
1378;SDS011;683;48.738;9.226;2023-03-31T15:28:49;1.40;;;0.50;;
1378;SDS011;683;48.738;9.226;2023-03-31T15:31:20;1.23;;;0.77;;
1378;SDS011;683;48.738;9.226;2023-03-31T15:33:48;1.40;;;0.80;;
1378;SDS011;683;48.738;9.226;2023-03-31T15:36:16;1.00;;;0.60;;
1378;SDS011;683;48.738;9.226;2023-03-31T15:38:51;1.47;;;0.83;;
1378;SDS011;683;48.738;9.226;2023-03-31T15:41:21;1.27;;;0.97;;
1378;SDS011;683;48.738;9.226;2023-03-31T15:44:01;2.60;;;0.80;;
1378;SDS011;683;48.738;9.226;2023-03-31T15:49:22;1.97;;;0.93;;
1378;SDS011;683;48.738;9.226;2023-03-31T15:51:51;0.70;;;0.60;;
1378;SDS011;683;48.738;9.226;2023-03-31T15:54:30;2.83;;;0.83;;
1378;SDS011;683;48.738;9.226;2023-03-31T15:57:00;1.60;;;0.63;;
1378;SDS011;683;48.738;9.226;2023-03-31T15:59:31;2.43;;;0.73;;
1378;SDS011;683;48.738;9.226;2023-03-31T16:02:10;1.87;;;1.03;;
1378;SDS011;683;48.738;9.226;2023-03-31T16:04:41;4.93;;;1.17;;
1378;SDS011;683;48.738;9.226;2023-03-31T16:07:13;1.47;;;0.97;;
1378;SDS011;683;48.738;9.226;2023-03-31T16:09:44;1.90;;;1.03;;
1378;SDS011;683;48.738;9.226;2023-03-31T16:12:17;1.83;;;1.17;;
1378;SDS011;683;48.738;9.226;2023-03-31T16:14:50;2.00;;;0.93;;
1378;SDS011;683;48.738;9.226;2023-03-31T16:17:21;2.50;;;0.77;;
1378;SDS011;683;48.738;9.226;2023-03-31T16:19:55;1.67;;;0.87;;
1378;SDS011;683;48.738;9.226;2023-03-31T16:22:29;1.20;;;0.73;;
1378;SDS011;683;48.738;9.226;2023-03-31T16:25:07;2.33;;;0.80;;
1378;SDS011;683;48.738;9.226;2023-03-31T16:27:41;1.27;;;1.00;;
1378;SDS011;683;48.738;9.226;2023-03-31T16:30:15;2.30;;;0.97;;